createdAt,value
2022-08-08T00:02:43.091Z,7.90
2022-08-08T00:05:43.364Z,8.20
2022-08-08T00:08:37.922Z,8.40
2022-08-08T00:11:15.841Z,7.90
2022-08-08T00:14:58.905Z,9.38
2022-08-08T00:17:23.262Z,9.65
2022-08-08T00:20:03.869Z,8.23
2022-08-08T00:22:40.283Z,8.45
2022-08-08T00:25:44.815Z,8.43
2022-08-08T00:28:35.681Z,8.23
2022-08-08T00:32:28.420Z,8.25
2022-08-08T00:38:02.900Z,7.95
2022-08-08T00:41:55.617Z,8.48
2022-08-08T00:44:37.696Z,7.45
2022-08-08T00:48:05.184Z,7.57
2022-08-08T00:50:53.595Z,6.63
2022-08-08T00:54:13.468Z,6.78
2022-08-08T00:57:04.557Z,7.32
2022-08-08T00:59:51.135Z,7.50
2022-08-08T01:03:57.502Z,7.13
2022-08-08T01:06:08.251Z,7.18
2022-08-08T01:09:35.494Z,7.63
2022-08-08T01:12:47.983Z,7.28
2022-08-08T01:15:54.572Z,6.90
2022-08-08T01:18:56.939Z,7.43
2022-08-08T01:22:12.734Z,6.82
2022-08-08T01:24:53.706Z,7.60
2022-08-08T01:27:44.481Z,6.70
2022-08-08T01:34:01.263Z,7.05
2022-08-08T01:37:13.743Z,6.78
2022-08-08T01:40:28.494Z,7.68
2022-08-08T01:46:42.844Z,7.07
2022-08-08T01:49:37.554Z,6.32
2022-08-08T01:52:53.990Z,6.95
2022-08-08T01:56:28.839Z,6.85
2022-08-08T02:00:00.995Z,6.70
2022-08-08T02:02:41.558Z,6.80
2022-08-08T02:08:49.199Z,5.78
2022-08-08T02:11:59.096Z,6.03
2022-08-08T02:14:31.982Z,6.22
2022-08-08T02:17:25.446Z,6.38
2022-08-08T02:23:18.390Z,6.18
2022-08-08T02:26:02.385Z,6.28
2022-08-08T02:28:54.085Z,5.67
2022-08-08T02:35:07.724Z,5.97
2022-08-08T02:38:05.815Z,5.72
2022-08-08T02:40:49.900Z,5.70
2022-08-08T02:44:38.281Z,5.30
2022-08-08T02:46:45.207Z,6.03
2022-08-08T02:49:59.121Z,5.80
2022-08-08T02:52:50.671Z,5.95
2022-08-08T02:55:59.698Z,5.53
2022-08-08T02:58:50.801Z,5.82
2022-08-08T03:01:32.657Z,5.47
2022-08-08T03:05:05.252Z,6.95
2022-08-08T03:07:58.315Z,5.80
2022-08-08T03:10:53.555Z,5.45
2022-08-08T03:16:01.025Z,5.30
2022-08-08T03:17:10.070Z,5.90
2022-08-08T03:20:10.331Z,5.95
2022-08-08T03:22:57.268Z,5.53
2022-08-08T03:25:39.370Z,5.72
2022-08-08T03:28:19.105Z,5.20
2022-08-08T03:31:07.807Z,4.63
2022-08-08T03:33:58.820Z,5.43
2022-08-08T03:36:33.295Z,5.28
2022-08-08T03:39:14.921Z,5.03
2022-08-08T03:42:11.810Z,5.22
2022-08-08T03:44:44.933Z,4.90
2022-08-08T03:47:45.126Z,5.55
2022-08-08T03:50:27.089Z,5.75
2022-08-08T03:52:58.458Z,5.32
2022-08-08T03:55:56.660Z,5.35
2022-08-08T03:58:36.304Z,5.50
2022-08-08T04:01:24.050Z,5.43
2022-08-08T04:04:01.838Z,4.25
2022-08-08T04:07:01.257Z,4.38
2022-08-08T04:10:00.806Z,4.55
2022-08-08T04:12:26.245Z,4.60
2022-08-08T04:14:56.632Z,4.60
2022-08-08T04:17:58.090Z,4.45
2022-08-08T04:20:28.245Z,4.30
2022-08-08T04:22:59.560Z,4.72
2022-08-08T04:25:38.263Z,3.55
2022-08-08T04:28:40.105Z,4.40
2022-08-08T04:31:07.379Z,3.80
2022-08-08T04:33:41.909Z,3.80
2022-08-08T04:36:12.985Z,3.58
2022-08-08T04:38:42.253Z,4.00
2022-08-08T04:41:17.634Z,3.95
2022-08-08T04:43:53.915Z,3.25
2022-08-08T04:46:36.150Z,3.75
2022-08-08T04:49:11.375Z,3.60
2022-08-08T04:51:50.943Z,3.50
2022-08-08T04:54:39.834Z,3.08
2022-08-08T04:57:12.107Z,3.22
2022-08-08T04:59:42.015Z,3.40
2022-08-08T05:02:13.775Z,3.10
2022-08-08T05:04:44.544Z,3.15
2022-08-08T05:07:15.022Z,2.95
2022-08-08T05:09:45.144Z,2.96
2022-08-08T05:12:20.666Z,2.97
2022-08-08T05:14:52.438Z,3.20
2022-08-08T05:17:27.440Z,3.03
2022-08-08T05:20:21.628Z,3.55
2022-08-08T05:22:53.569Z,3.40
2022-08-08T05:25:23.711Z,2.83
2022-08-08T05:27:54.782Z,3.20
2022-08-08T05:30:28.075Z,3.10
2022-08-08T05:32:59.744Z,3.33
2022-08-08T05:35:35.588Z,2.65
2022-08-08T05:38:30.478Z,2.90
2022-08-08T05:41:08.428Z,2.97
2022-08-08T05:44:03.255Z,2.95
2022-08-08T05:46:35.730Z,3.70
2022-08-08T05:49:11.295Z,3.10
2022-08-08T05:51:48.988Z,3.38
2022-08-08T05:54:46.220Z,3.33
2022-08-08T05:57:57.455Z,3.53
2022-08-08T06:00:24.904Z,3.34
2022-08-08T06:03:17.243Z,2.92
2022-08-08T06:06:05.173Z,3.85
2022-08-08T06:08:54.632Z,3.45
2022-08-08T06:11:28.335Z,3.30
2022-08-08T06:14:01.643Z,3.47
2022-08-08T06:16:31.819Z,3.60
2022-08-08T06:19:26.162Z,3.30
2022-08-08T06:21:57.974Z,3.30
2022-08-08T06:24:36.432Z,3.00
2022-08-08T06:27:10.833Z,3.17
2022-08-08T06:32:50.171Z,3.50
2022-08-08T06:36:06.837Z,3.60
2022-08-08T06:38:33.318Z,3.60
2022-08-08T06:41:07.811Z,3.13
2022-08-08T06:43:56.843Z,3.40
2022-08-08T06:46:31.318Z,3.30
2022-08-08T06:49:02.371Z,3.50
2022-08-08T06:51:52.490Z,3.85
2022-08-08T06:54:26.529Z,3.78
2022-08-08T06:56:55.707Z,3.35
2022-08-08T06:59:25.445Z,3.63
2022-08-08T07:02:21.401Z,3.88
2022-08-08T07:05:05.769Z,3.50
2022-08-08T07:07:44.263Z,3.55
2022-08-08T07:10:20.017Z,4.07
2022-08-08T07:13:17.808Z,4.45
2022-08-08T07:16:10.132Z,3.65
2022-08-08T07:19:10.539Z,4.55
2022-08-08T07:25:09.969Z,4.53
2022-08-08T07:28:02.584Z,4.65
2022-08-08T07:30:40.002Z,4.75
2022-08-08T07:33:17.727Z,4.70
2022-08-08T07:35:51.297Z,3.88
2022-08-08T07:38:25.549Z,4.40
2022-08-08T07:41:04.554Z,4.30
2022-08-08T07:43:43.671Z,4.03
2022-08-08T07:46:30.253Z,3.70
2022-08-08T07:49:05.170Z,3.72
2022-08-08T07:51:45.496Z,3.78
2022-08-08T07:54:49.955Z,4.15
2022-08-08T07:57:36.110Z,3.50
2022-08-08T08:00:16.990Z,4.00
2022-08-08T08:03:23.812Z,4.05
2022-08-08T08:06:00.726Z,4.50
2022-08-08T08:08:41.871Z,3.70
2022-08-08T08:11:23.864Z,4.43
2022-08-08T08:14:10.578Z,3.78
2022-08-08T08:16:48.655Z,4.22
2022-08-08T08:19:23.209Z,3.80
2022-08-08T08:21:58.228Z,4.08
2022-08-08T08:24:46.703Z,3.85
2022-08-08T08:27:20.377Z,3.67
2022-08-08T08:29:53.213Z,3.30
2022-08-08T08:32:35.955Z,3.42
2022-08-08T08:35:15.142Z,3.45
2022-08-08T08:38:16.180Z,3.60
2022-08-08T08:40:42.947Z,4.28
2022-08-08T08:43:26.938Z,3.80
2022-08-08T08:46:15.128Z,4.50
2022-08-08T08:48:57.915Z,3.97
2022-08-08T08:51:29.059Z,4.15
2022-08-08T08:54:03.398Z,4.00
2022-08-08T08:56:37.491Z,4.18
2022-08-08T08:59:17.935Z,3.72
2022-08-08T09:01:58.161Z,3.67
2022-08-08T09:04:39.596Z,3.70
2022-08-08T09:07:24.027Z,3.53
2022-08-08T09:10:17.273Z,2.90
2022-08-08T09:12:51.623Z,3.30
2022-08-08T09:15:37.125Z,3.38
2022-08-08T09:18:11.630Z,3.70
2022-08-08T09:21:57.978Z,4.50
2022-08-08T09:23:40.877Z,3.33
2022-08-08T09:26:39.559Z,3.40
2022-08-08T09:29:56.870Z,3.30
2022-08-08T09:32:40.318Z,3.22
2022-08-08T09:35:32.266Z,3.20
2022-08-08T09:38:17.559Z,2.83
2022-08-08T09:40:57.772Z,2.90
2022-08-08T09:44:06.483Z,3.25
2022-08-08T09:46:45.133Z,3.08
2022-08-08T09:52:59.315Z,3.30
2022-08-08T09:55:17.423Z,3.38
2022-08-08T09:58:08.883Z,3.05
2022-08-08T10:00:53.469Z,3.40
2022-08-08T10:03:31.502Z,2.90
2022-08-08T10:06:01.355Z,3.20
2022-08-08T10:08:33.188Z,2.60
2022-08-08T10:11:02.703Z,3.00
2022-08-08T10:14:02.163Z,2.50
2022-08-08T10:16:44.446Z,2.70
2022-08-08T10:19:15.915Z,2.60
2022-08-08T10:21:51.307Z,2.67
2022-08-08T10:24:29.231Z,2.75
2022-08-08T10:27:06.980Z,2.80
2022-08-08T10:29:58.949Z,2.70
2022-08-08T10:32:50.695Z,2.63
2022-08-08T10:36:06.835Z,2.83
2022-08-08T10:38:20.257Z,2.63
2022-08-08T10:40:53.824Z,2.33
2022-08-08T10:43:24.247Z,2.80
2022-08-08T10:46:30.364Z,2.63
2022-08-08T10:49:00.554Z,3.10
2022-08-08T10:51:47.096Z,2.97
2022-08-08T10:54:25.037Z,2.80
2022-08-08T10:57:05.702Z,3.10
2022-08-08T10:59:57.847Z,2.50
2022-08-08T11:02:33.371Z,2.40
2022-08-08T11:05:05.754Z,2.60
2022-08-08T11:08:38.992Z,2.88
2022-08-08T11:10:38.582Z,4.47
2022-08-08T11:13:29.953Z,2.78
2022-08-08T11:16:00.939Z,2.92
2022-08-08T11:18:37.731Z,8.68
2022-08-08T11:21:10.287Z,3.10
2022-08-08T11:24:02.199Z,3.65
2022-08-08T11:26:34.628Z,2.80
2022-08-08T11:29:17.906Z,2.50
2022-08-08T11:31:49.208Z,2.50
2022-08-08T11:34:24.367Z,2.67
2022-08-08T11:37:15.068Z,2.70
2022-08-08T11:39:57.383Z,2.42
2022-08-08T11:42:30.848Z,2.47
2022-08-08T11:45:11.694Z,2.40
2022-08-08T11:48:02.914Z,2.15
2022-08-08T11:50:35.207Z,2.58
2022-08-08T11:53:05.839Z,2.15
2022-08-08T11:55:36.817Z,2.70
2022-08-08T11:58:14.839Z,2.72
2022-08-08T12:00:53.327Z,2.65
2022-08-08T12:03:30.732Z,2.25
2022-08-08T12:06:00.208Z,2.40
2022-08-08T12:08:34.159Z,2.83
2022-08-08T12:11:10.564Z,2.10
2022-08-08T12:16:43.429Z,7.95
2022-08-08T12:19:16.311Z,2.30
2022-08-08T12:22:09.417Z,2.33
2022-08-08T12:24:56.054Z,2.30
2022-08-08T12:27:26.377Z,2.63
2022-08-08T12:29:59.326Z,2.33
2022-08-08T12:32:31.171Z,2.05
2022-08-08T12:35:13.095Z,1.95
2022-08-08T12:37:48.090Z,2.33
2022-08-08T12:40:54.846Z,2.40
2022-08-08T12:43:47.772Z,1.95
2022-08-08T12:46:26.832Z,2.70
2022-08-08T12:51:58.670Z,2.90
2022-08-08T12:54:45.922Z,2.64
2022-08-08T12:57:23.406Z,2.50
2022-08-08T13:00:05.716Z,2.00
2022-08-08T13:02:51.400Z,2.53
2022-08-08T13:05:26.629Z,2.03
2022-08-08T13:08:18.710Z,2.90
2022-08-08T13:10:58.574Z,2.28
2022-08-08T13:13:39.478Z,2.80
2022-08-08T13:16:25.470Z,2.60
2022-08-08T13:19:00.474Z,2.90
2022-08-08T13:21:53.048Z,2.53
2022-08-08T13:24:38.765Z,2.47
2022-08-08T13:27:12.270Z,2.35
2022-08-08T13:29:59.479Z,2.40
2022-08-08T13:32:39.472Z,2.78
2022-08-08T13:35:24.899Z,2.50
2022-08-08T13:38:06.240Z,2.45
2022-08-08T13:40:40.991Z,2.97
2022-08-08T13:43:11.360Z,2.40
2022-08-08T13:45:40.952Z,3.10
2022-08-08T13:48:25.393Z,2.75
2022-08-08T13:50:58.057Z,2.80
2022-08-08T13:54:00.165Z,2.58
2022-08-08T13:56:53.678Z,2.55
2022-08-08T13:59:32.713Z,2.90
2022-08-08T14:02:31.128Z,2.35
2022-08-08T14:05:21.984Z,2.60
2022-08-08T14:07:52.625Z,2.17
2022-08-08T14:10:33.361Z,2.40
2022-08-08T14:13:21.132Z,2.20
2022-08-08T14:16:15.816Z,2.08
2022-08-08T14:18:53.627Z,2.20
2022-08-08T14:21:39.484Z,2.00
2022-08-08T14:24:09.835Z,2.25
2022-08-08T14:26:46.316Z,2.20
2022-08-08T14:29:28.037Z,2.65
2022-08-08T14:32:10.859Z,2.47
2022-08-08T14:34:54.012Z,2.33
2022-08-08T14:37:27.997Z,2.45
2022-08-08T14:40:10.521Z,2.63
2022-08-08T14:42:54.776Z,2.35
2022-08-08T14:45:46.934Z,2.55
2022-08-08T14:48:34.929Z,2.90
2022-08-08T14:51:08.048Z,2.88
2022-08-08T14:53:59.067Z,3.38
2022-08-08T14:56:33.040Z,2.80
2022-08-08T14:59:03.073Z,2.97
2022-08-08T15:01:52.623Z,2.60
2022-08-08T15:04:23.744Z,2.92
2022-08-08T15:06:55.155Z,2.57
2022-08-08T15:09:24.496Z,2.63
2022-08-08T15:11:53.997Z,2.60
2022-08-08T15:14:32.807Z,2.78
2022-08-08T15:17:02.987Z,2.72
2022-08-08T15:19:36.942Z,2.88
2022-08-08T15:22:17.893Z,3.20
2022-08-08T15:24:57.552Z,3.70
2022-08-08T15:28:03.905Z,3.65
2022-08-08T15:30:15.233Z,3.65
2022-08-08T15:32:51.748Z,3.47
2022-08-08T15:35:22.652Z,3.88
2022-08-08T15:37:51.445Z,4.25
2022-08-08T15:40:22.161Z,4.75
2022-08-08T15:42:57.125Z,5.38
2022-08-08T15:45:29.947Z,7.00
2022-08-08T15:48:15.436Z,7.97
2022-08-08T15:51:06.231Z,7.50
2022-08-08T15:53:49.199Z,6.40
2022-08-08T15:56:29.300Z,5.03
2022-08-08T15:59:03.048Z,4.38
2022-08-08T16:01:40.801Z,3.97
2022-08-08T16:04:31.468Z,3.47
2022-08-08T16:07:01.134Z,3.87
2022-08-08T16:13:09.458Z,3.30
2022-08-08T16:13:09.626Z,3.45
2022-08-08T16:15:10.075Z,3.28
2022-08-08T16:18:06.459Z,3.10
2022-08-08T16:20:30.495Z,2.88
2022-08-08T16:22:59.388Z,2.75
2022-08-08T16:25:45.561Z,2.85
2022-08-08T16:28:34.182Z,3.08
2022-08-08T16:31:07.738Z,4.28
2022-08-08T16:33:40.472Z,3.38
2022-08-08T16:36:15.734Z,3.25
2022-08-08T16:38:54.019Z,3.00
2022-08-08T16:41:30.251Z,2.90
2022-08-08T16:44:01.895Z,3.10
2022-08-08T16:46:46.239Z,3.38
2022-08-08T16:49:36.076Z,3.50
2022-08-08T16:55:42.450Z,4.07
2022-08-08T16:58:16.254Z,3.72
2022-08-08T17:00:48.757Z,3.53
2022-08-08T17:03:25.416Z,4.00
2022-08-08T17:06:36.496Z,3.38
2022-08-08T17:09:14.724Z,3.70
2022-08-08T17:11:51.592Z,3.95
2022-08-08T17:14:27.196Z,3.72
2022-08-08T17:17:04.692Z,3.88
2022-08-08T17:19:40.908Z,4.00
2022-08-08T17:22:15.521Z,3.80
2022-08-08T17:24:53.617Z,4.05
2022-08-08T17:27:28.923Z,3.80
2022-08-08T17:29:58.518Z,3.60
2022-08-08T17:32:34.246Z,3.20
2022-08-08T17:35:56.220Z,3.50
2022-08-08T17:38:23.434Z,3.35
2022-08-08T17:40:52.338Z,4.00
2022-08-08T17:43:23.427Z,3.70
2022-08-08T17:45:59.422Z,3.60
2022-08-08T17:48:30.673Z,3.75
2022-08-08T17:51:01.390Z,3.78
2022-08-08T17:53:43.210Z,3.80
2022-08-08T17:56:12.712Z,3.30
2022-08-08T17:58:41.623Z,3.58
2022-08-08T18:01:30.024Z,3.40
2022-08-08T18:04:09.355Z,3.97
2022-08-08T18:07:00.532Z,3.90
2022-08-08T18:09:31.557Z,4.53
2022-08-08T18:12:13.119Z,4.50
2022-08-08T18:14:42.188Z,3.83
2022-08-08T18:17:17.765Z,4.00
2022-08-08T18:20:36.824Z,4.03
2022-08-08T18:22:53.240Z,4.00
2022-08-08T18:25:36.973Z,3.88
2022-08-08T18:28:13.653Z,4.03
2022-08-08T18:30:48.844Z,3.80
2022-08-08T18:33:36.377Z,3.65
2022-08-08T18:36:18.665Z,3.65
2022-08-08T18:38:51.874Z,3.47
2022-08-08T18:41:51.608Z,4.05
2022-08-08T18:44:12.805Z,4.30
2022-08-08T18:46:55.151Z,3.97
2022-08-08T18:49:32.383Z,3.83
2022-08-08T18:52:18.293Z,3.88
2022-08-08T18:54:58.982Z,4.00
2022-08-08T18:57:31.978Z,3.83
2022-08-08T19:00:20.060Z,3.97
2022-08-08T19:02:55.459Z,3.67
2022-08-08T19:05:37.374Z,4.10
2022-08-08T19:08:29.466Z,3.70
2022-08-08T19:11:01.701Z,4.00
2022-08-08T19:13:56.966Z,3.63
2022-08-08T19:16:28.355Z,3.97
2022-08-08T19:19:03.218Z,4.20
2022-08-08T19:21:49.404Z,4.22
2022-08-08T19:24:39.233Z,3.88
2022-08-08T19:27:12.467Z,4.18
2022-08-08T19:32:21.907Z,3.97
2022-08-08T19:34:52.462Z,4.32
2022-08-08T19:37:43.420Z,3.90
2022-08-08T19:40:16.419Z,4.45
2022-08-08T19:42:50.033Z,3.85
2022-08-08T19:45:58.184Z,3.90
2022-08-08T19:48:30.555Z,4.20
2022-08-08T19:51:01.083Z,4.38
2022-08-08T19:53:52.324Z,4.10
2022-08-08T19:56:25.585Z,4.30
2022-08-08T19:59:09.573Z,4.22
2022-08-08T20:02:01.508Z,4.43
2022-08-08T20:04:38.124Z,4.03
2022-08-08T20:08:28.581Z,4.30
2022-08-08T20:10:08.635Z,4.00
2022-08-08T20:12:40.499Z,4.20
2022-08-08T20:16:00.431Z,4.10
2022-08-08T20:18:18.298Z,4.40
2022-08-08T20:20:55.409Z,4.18
2022-08-08T20:23:25.107Z,3.92
2022-08-08T20:25:54.732Z,4.03
2022-08-08T20:28:32.689Z,4.30
2022-08-08T20:31:06.750Z,4.30
2022-08-08T20:34:27.163Z,4.40
2022-08-08T20:36:28.802Z,4.20
2022-08-08T20:38:57.720Z,4.45
2022-08-08T20:41:27.756Z,4.15
2022-08-08T20:44:00.683Z,4.03
2022-08-08T20:46:29.514Z,4.32
2022-08-08T20:48:59.905Z,4.43
2022-08-08T20:51:38.647Z,3.92
2022-08-08T20:54:26.360Z,4.60
2022-08-08T20:57:16.262Z,4.63
2022-08-08T20:59:51.221Z,4.50
2022-08-08T21:02:25.606Z,4.20
2022-08-08T21:05:00.824Z,4.88
2022-08-08T21:08:33.242Z,4.82
2022-08-08T21:10:31.544Z,4.70
2022-08-08T21:13:00.496Z,4.75
2022-08-08T21:16:06.174Z,4.78
2022-08-08T21:18:30.397Z,5.03
2022-08-08T21:21:20.416Z,4.90
2022-08-08T21:24:12.065Z,4.65
2022-08-08T21:26:53.781Z,4.57
2022-08-08T21:30:04.574Z,5.13
2022-08-08T21:32:25.171Z,4.50
2022-08-08T21:34:56.930Z,4.65
2022-08-08T21:37:55.496Z,4.97
2022-08-08T21:40:32.638Z,4.97
2022-08-08T21:43:08.273Z,4.78
2022-08-08T21:48:07.002Z,5.07
2022-08-08T21:48:49.212Z,4.97
2022-08-08T21:54:17.653Z,5.03
2022-08-08T21:54:36.544Z,4.93
2022-08-08T21:57:09.860Z,5.18
2022-08-08T21:59:44.105Z,4.85
2022-08-08T22:02:27.971Z,4.60
2022-08-08T22:04:59.506Z,5.20
2022-08-08T22:07:40.145Z,5.30
2022-08-08T22:10:28.816Z,5.45
2022-08-08T22:13:16.974Z,5.03
2022-08-08T22:15:58.780Z,5.13
2022-08-08T22:18:39.690Z,4.95
2022-08-08T22:21:21.872Z,5.72
2022-08-08T22:23:54.880Z,5.30
2022-08-08T22:26:29.276Z,5.40
2022-08-08T22:29:13.296Z,5.35
2022-08-08T22:31:58.461Z,5.10
2022-08-08T22:34:32.711Z,5.25
2022-08-08T22:37:03.363Z,5.63
2022-08-08T22:39:39.566Z,5.18
2022-08-08T22:42:24.176Z,5.57
2022-08-08T22:44:56.559Z,5.63
2022-08-08T22:47:38.504Z,5.63
2022-08-08T22:50:25.949Z,5.38
2022-08-08T22:54:17.025Z,5.20
2022-08-08T22:55:58.264Z,5.80
2022-08-08T22:58:33.939Z,5.65
2022-08-08T23:01:16.449Z,5.73
2022-08-08T23:04:00.491Z,4.95
2022-08-08T23:06:29.395Z,5.68
2022-08-08T23:09:09.636Z,5.65
2022-08-08T23:12:18.480Z,5.68
2022-08-08T23:14:27.452Z,4.95
2022-08-08T23:16:59.551Z,5.47
2022-08-08T23:19:32.374Z,5.70
2022-08-08T23:22:04.630Z,6.05
2022-08-08T23:24:44.765Z,5.55
2022-08-08T23:27:37.941Z,5.80
2022-08-08T23:30:09.567Z,5.55
2022-08-08T23:32:43.918Z,6.07
2022-08-08T23:35:24.545Z,5.88
2022-08-08T23:38:02.604Z,5.70
2022-08-08T23:40:37.215Z,5.07
2022-08-08T23:43:09.052Z,5.90
2022-08-08T23:49:05.810Z,5.35
2022-08-08T23:49:06.164Z,5.20
2022-08-08T23:51:42.172Z,5.32
2022-08-08T23:54:41.796Z,5.68
2022-08-08T23:56:58.269Z,6.03
2022-08-08T23:59:27.750Z,5.43
